Time;durP1;ratioP1;P1;durP2;ratioP2;P2;SDS_P1;SDS_P2;PMS_P1;PMS_P2;Temp;Humidity;BMP_temperature;BMP_pressure;BME280_temperature;BME280_humidity;BME280_pressure;Samples;Min_cycle;Max_cycle;Signal;HPM_P1;HPM_P2
2023/10/21 00:04:02;;;;;;;9.80;5.50;;;;;;;6.39;100.00;98550.25;4982924;56;1137130;-78
2023/10/21 00:09:08;;;;;;;10.70;5.75;;;;;;;6.43;100.00;98580.48;5005924;56;1136783;-75
2023/10/21 00:14:14;;;;;;;9.67;5.60;;;;;;;6.46;100.00;98600.73;4935856;57;1139174;-73
2023/10/21 00:19:20;;;;;;;10.33;5.47;;;;;;;6.51;100.00;98593.77;4791505;59;1136774;-73
2023/10/21 00:24:26;;;;;;;10.40;6.13;;;;;;;6.54;100.00;98583.81;4803711;58;1139271;-78
2023/10/21 00:29:31;;;;;;;13.37;5.97;;;;;;;6.56;100.00;98589.75;4902552;57;1138773;-72
2023/10/21 00:34:40;;;;;;;13.40;6.67;;;;;;;6.58;100.00;98562.84;4909253;57;1138868;-69
2023/10/21 00:39:46;;;;;;;13.75;6.62;;;;;;;6.57;100.00;98555.92;4768682;58;1139026;-70
2023/10/21 00:44:51;;;;;;;11.08;6.65;;;;;;;6.57;100.00;98563.80;4858443;57;1139376;-69
2023/10/21 00:49:57;;;;;;;11.80;6.33;;;;;;;6.57;100.00;98563.80;4907779;57;1139150;-69
2023/10/21 00:55:03;;;;;;;9.93;5.53;;;;;;;6.58;100.00;98549.70;4920223;57;1139011;-72
2023/10/21 01:00:13;;;;;;;10.30;6.20;;;;;;;6.60;100.00;98546.94;4929090;57;1137021;-75
2023/10/21 01:05:19;;;;;;;14.73;5.77;;;;;;;6.59;100.00;98523.78;4910911;57;1139068;-68
2023/10/21 01:10:25;;;;;;;10.87;6.03;;;;;;;6.58;100.00;98533.12;4786794;60;1138831;-67
2023/10/21 01:15:31;;;;;;;9.47;6.20;;;;;;;6.61;100.00;98534.16;4932845;58;1139185;-75
2023/10/21 01:20:41;;;;;;;8.23;5.03;;;;;;;6.61;100.00;98539.41;4917548;57;1136876;-71
2023/10/21 01:25:47;;;;;;;14.27;6.07;;;;;;;6.63;100.00;98559.31;4919704;57;1136930;-75
2023/10/21 01:30:52;;;;;;;10.08;6.87;;;;;;;6.67;100.00;98559.86;4792860;58;1138956;-71
2023/10/21 01:35:58;;;;;;;13.32;5.95;;;;;;;6.68;100.00;98544.45;4958109;57;1139014;-69
2023/10/21 01:41:03;;;;;;;8.53;5.30;;;;;;;6.69;100.00;98535.11;4985874;56;1138782;-73
2023/10/21 01:46:09;;;;;;;10.07;6.17;;;;;;;6.68;100.00;98518.18;4985912;57;1136946;-69
2023/10/21 01:51:15;;;;;;;8.35;5.55;;;;;;;6.70;100.00;98519.70;4998917;56;1139180;-70
2023/10/21 01:56:20;;;;;;;9.03;6.47;;;;;;;6.72;100.00;98537.12;4985939;57;1136961;-73
2023/10/21 02:01:26;;;;;;;10.50;5.77;;;;;;;6.72;100.00;98534.00;4987750;57;1136876;-69
2023/10/21 02:06:31;;;;;;;7.30;5.37;;;;;;;6.77;100.00;98567.70;5014724;56;1139214;-74
2023/10/21 02:11:37;;;;;;;6.30;5.00;;;;;;;6.81;100.00;98588.79;4989437;57;1136983;-69
2023/10/21 02:16:42;;;;;;;9.60;5.23;;;;;;;6.86;100.00;98641.75;4792723;58;1136918;-74
2023/10/21 02:21:49;;;;;;;9.10;5.30;;;;;;;6.89;100.00;98654.59;4791540;58;1136890;-75
2023/10/21 02:26:54;;;;;;;8.60;5.70;;;;;;;6.93;100.00;98662.05;4931579;58;1136658;-75
2023/10/21 02:32:00;;;;;;;8.90;5.72;;;;;;;6.96;100.00;98649.12;4938553;57;1136740;-76
2023/10/21 02:37:06;;;;;;;9.13;6.33;;;;;;;7.00;100.00;98621.59;4985734;56;1136736;-72
2023/10/21 02:42:12;;;;;;;11.53;6.33;;;;;;;7.01;100.00;98626.71;5006025;56;1137047;-73
2023/10/21 02:47:17;;;;;;;8.65;5.72;;;;;;;7.04;100.00;98628.20;4981325;57;1139051;-70
2023/10/21 02:52:23;;;;;;;16.23;7.37;;;;;;;7.02;100.00;98612.60;4982889;56;1136633;-72
2023/10/21 02:57:29;;;;;;;11.73;6.53;;;;;;;7.03;100.00;98623.91;5003985;57;1138740;-74
2023/10/21 03:02:34;;;;;;;12.47;7.67;;;;;;;7.05;100.00;98625.92;4980681;57;1138700;-74
2023/10/21 03:07:40;;;;;;;12.58;7.42;;;;;;;7.05;100.00;98611.46;4980256;57;1138991;-76
2023/10/21 03:12:46;;;;;;;16.02;7.50;;;;;;;7.07;100.00;98621.34;4963515;58;1139067;-71
2023/10/21 03:17:52;;;;;;;15.10;8.17;;;;;;;7.09;100.00;98636.50;4809559;59;1139022;-75
2023/10/21 03:22:57;;;;;;;16.20;9.07;;;;;;;7.11;100.00;98673.98;4915686;57;1138646;-76
2023/10/21 03:28:03;;;;;;;16.37;8.87;;;;;;;7.17;100.00;98701.52;4782803;60;1138766;-70
2023/10/21 03:33:08;;;;;;;21.80;9.73;;;;;;;7.22;100.00;98700.59;4836095;59;1138958;-72
2023/10/21 03:38:14;;;;;;;16.17;9.20;;;;;;;7.25;100.00;98710.34;4815694;59;1139103;-69
2023/10/21 03:43:20;;;;;;;15.93;8.57;;;;;;;7.28;100.00;98710.55;4979744;57;1139118;-77
2023/10/21 03:48:26;;;;;;;17.87;10.43;;;;;;;7.27;100.00;98686.05;4988940;57;1139219;-74
2023/10/21 03:53:34;;;;;;;14.40;8.00;;;;;;;7.28;100.00;98685.57;4812210;59;1141953;-70
2023/10/21 03:58:40;;;;;;;13.80;8.27;;;;;;;7.30;100.00;98701.55;4972057;58;1139354;-67
2023/10/21 04:03:46;;;;;;;11.90;7.10;;;;;;;7.34;100.00;98716.05;4973292;57;1138986;-75
2023/10/21 04:08:51;;;;;;;14.47;7.47;;;;;;;7.36;100.00;98715.42;4969399;57;1139269;-70
2023/10/21 04:13:57;;;;;;;11.13;6.27;;;;;;;7.40;100.00;98689.67;4924532;57;1259504;-75
2023/10/21 04:19:03;;;;;;;9.63;5.97;;;;;;;7.35;100.00;98671.69;4804830;59;1138854;-73
2023/10/21 04:24:09;;;;;;;11.88;6.50;;;;;;;7.33;100.00;98665.74;4787336;60;1137015;-71
2023/10/21 04:29:15;;;;;;;9.60;6.37;;;;;;;7.34;100.00;98674.45;4762342;59;1139341;-68
2023/10/21 04:34:22;;;;;;;9.28;6.37;;;;;;;7.39;100.00;98674.87;4905469;57;1136740;-74
2023/10/21 04:39:29;;;;;;;9.50;6.55;;;;;;;7.44;100.00;98677.91;4738264;60;1136689;-73
2023/10/21 04:44:35;;;;;;;7.55;5.42;;;;;;;7.45;100.00;98693.20;4750621;59;1136744;-73
2023/10/21 04:49:43;;;;;;;12.43;7.65;;;;;;;7.48;100.00;98702.95;4899817;58;1136874;-72
2023/10/21 04:54:48;;;;;;;28.27;13.53;;;;;;;7.49;100.00;98682.23;4798422;59;1140018;-71
2023/10/21 04:59:53;;;;;;;20.77;10.80;;;;;;;7.50;100.00;98673.84;4786834;59;1140996;-72
2023/10/21 05:05:00;;;;;;;12.00;7.57;;;;;;;7.51;100.00;98666.30;4901703;58;1141007;-73
2023/10/21 05:10:06;;;;;;;9.00;6.37;;;;;;;7.48;100.00;98675.34;4791701;60;1138718;-72
2023/10/21 05:15:12;;;;;;;6.83;4.97;;;;;;;7.51;100.00;98713.16;4808588;59;1137014;-70
2023/10/21 05:20:17;;;;;;;7.17;5.17;;;;;;;7.53;100.00;98685.41;4781710;59;1136609;-77
2023/10/21 05:25:23;;;;;;;8.17;5.87;;;;;;;7.56;100.00;98700.42;4661664;61;1136635;-72
2023/10/21 05:30:28;;;;;;;13.80;7.33;;;;;;;7.57;100.00;98718.34;4731656;60;1136728;-73
2023/10/21 05:35:34;;;;;;;11.07;6.33;;;;;;;7.59;100.00;98717.23;4979411;57;1139023;-72
2023/10/21 05:40:44;;;;;;;10.37;5.60;;;;;;;7.62;100.00;98736.69;4981024;57;1138856;-71
2023/10/21 05:45:49;;;;;;;6.58;5.17;;;;;;;7.61;100.00;98740.77;4909635;57;1138881;-73
2023/10/21 05:50:56;;;;;;;8.38;5.40;;;;;;;7.68;100.00;98761.58;4782424;60;1136616;-72
2023/10/21 05:56:02;;;;;;;23.03;13.77;;;;;;;7.74;100.00;98794.73;4734509;60;1136675;-73
2023/10/21 06:01:11;;;;;;;18.83;11.43;;;;;;;7.81;100.00;98814.71;4759021;58;1141003;-71
2023/10/21 06:06:17;;;;;;;14.43;10.07;;;;;;;7.87;100.00;98822.05;4919241;57;1141567;-74
2023/10/21 06:11:23;;;;;;;9.93;6.83;;;;;;;7.89;100.00;98835.07;4911319;57;1140836;-71
2023/10/21 06:16:29;;;;;;;17.40;8.78;;;;;;;7.88;100.00;98836.88;4779383;59;1136915;-76
2023/10/21 06:21:34;;;;;;;14.10;8.88;;;;;;;7.92;100.00;98846.15;4753772;60;1138711;-71
2023/10/21 06:26:40;;;;;;;11.40;8.95;;;;;;;7.94;100.00;98855.22;4730798;59;1255666;-77
2023/10/21 06:31:46;;;;;;;9.87;6.83;;;;;;;7.98;100.00;98873.20;4901823;57;1138741;-74
2023/10/21 06:36:51;;;;;;;9.00;5.72;;;;;;;7.98;100.00;98870.56;4791994;59;1136882;-73
2023/10/21 06:41:57;;;;;;;8.38;5.80;;;;;;;7.99;100.00;98891.97;4809876;59;1136741;-69
2023/10/21 06:47:03;;;;;;;8.50;5.67;;;;;;;8.00;100.00;98884.42;4878938;58;1188390;-76
2023/10/21 06:52:09;;;;;;;17.87;12.53;;;;;;;8.03;100.00;98884.62;4784694;60;1137060;-73
2023/10/21 06:57:20;;;;;;;29.73;15.17;;;;;;;8.09;100.00;98883.58;4934860;57;1141044;-77
2023/10/21 07:02:21;;;;;;;20.57;12.00;;;;;;;8.09;100.00;98882.27;4907961;58;1141037;-75
2023/10/21 07:07:27;;;;;;;15.60;9.43;;;;;;;8.08;100.00;98883.23;4771572;60;1141120;-75
2023/10/21 07:12:34;;;;;;;13.13;8.23;;;;;;;8.12;100.00;98881.13;4872683;56;1138848;-75
2023/10/21 07:17:40;;;;;;;19.63;10.30;;;;;;;8.16;100.00;98879.04;4923880;57;1139302;-75
2023/10/21 07:22:46;;;;;;;18.47;10.93;;;;;;;8.18;100.00;98879.73;4908731;57;1140942;-70
2023/10/21 07:27:51;;;;;;;11.80;7.13;;;;;;;8.23;100.00;98891.99;4923975;57;1140870;-74
2023/10/21 07:32:58;;;;;;;22.80;11.83;;;;;;;8.26;100.00;98888.55;4792667;59;1138754;-73
2023/10/21 07:38:05;;;;;;;30.60;14.83;;;;;;;8.29;100.00;98901.45;4908406;57;1141111;-73
2023/10/21 07:43:11;;;;;;;11.60;7.60;;;;;;;8.32;100.00;98921.44;4804751;59;1140940;-73
2023/10/21 07:48:16;;;;;;;21.77;15.17;;;;;;;8.32;100.00;98924.07;4978527;57;1139482;-76
2023/10/21 07:53:22;;;;;;;14.80;7.70;;;;;;;8.37;100.00;98914.77;4969750;57;1249179;-73
2023/10/21 07:58:28;;;;;;;13.43;7.87;;;;;;;8.42;100.00;98922.22;4828026;60;1138748;-75
2023/10/21 08:03:34;;;;;;;14.57;7.40;;;;;;;8.43;100.00;98941.01;4799696;59;1138927;-76
2023/10/21 08:08:40;;;;;;;16.77;10.13;;;;;;;8.50;100.00;98939.95;4692188;60;1138886;-67
2023/10/21 08:13:45;;;;;;;22.00;13.27;;;;;;;8.56;100.00;98944.63;4863983;57;1140995;-75
2023/10/21 08:18:51;;;;;;;17.10;9.58;;;;;;;8.60;100.00;98952.11;4935821;58;1141007;-77
2023/10/21 08:23:57;;;;;;;20.35;10.20;;;;;;;8.60;100.00;98971.87;4790908;59;1138920;-79
2023/10/21 08:29:03;;;;;;;19.93;13.27;;;;;;;8.61;100.00;98978.81;4942877;57;1144837;-79
2023/10/21 08:34:13;;;;;;;17.75;9.20;;;;;;;8.66;100.00;98992.40;5000018;57;1141146;-75
2023/10/21 08:39:20;;;;;;;14.10;8.90;;;;;;;8.72;100.00;98992.28;4794265;59;1138924;-71
2023/10/21 08:44:25;;;;;;;13.80;9.97;;;;;;;8.81;100.00;99009.89;4889887;58;1138642;-77
2023/10/21 08:49:33;;;;;;;22.58;9.05;;;;;;;8.86;100.00;99007.63;4905639;58;1138791;-78
2023/10/21 08:54:43;;;;;;;21.30;9.73;;;;;;;8.91;100.00;99009.36;4878046;57;1138984;-72
2023/10/21 08:59:50;;;;;;;22.43;10.80;;;;;;;8.95;100.00;99019.13;4732543;59;1138933;-73
2023/10/21 09:04:56;;;;;;;18.47;12.70;;;;;;;9.02;100.00;99024.98;4769725;58;1141638;-75
2023/10/21 09:10:11;;;;;;;11.38;8.75;;;;;;;9.10;100.00;99033.50;4908580;57;1140871;-71
2023/10/21 09:15:21;;;;;;;9.60;7.37;;;;;;;9.16;100.00;99043.48;4793812;58;1138978;-74
2023/10/21 09:20:28;;;;;;;19.27;11.27;;;;;;;9.18;100.00;99041.49;4773353;59;1136641;-73
2023/10/21 09:25:35;;;;;;;15.40;10.47;;;;;;;9.22;100.00;99059.19;4785286;58;1140949;-77
2023/10/21 09:30:40;;;;;;;17.20;11.47;;;;;;;9.21;100.00;99078.63;4752562;60;1249446;-79
2023/10/21 09:35:46;;;;;;;17.47;12.07;;;;;;;9.23;100.00;99080.15;4719393;60;1141164;-79
2023/10/21 09:40:52;;;;;;;22.95;13.53;;;;;;;9.28;100.00;99081.04;4743312;59;1141070;-71
2023/10/21 09:46:04;;;;;;;37.38;16.57;;;;;;;9.32;100.00;99075.30;4792172;59;1150393;-75
2023/10/21 09:51:10;;;;;;;28.32;20.17;;;;;;;9.38;100.00;99070.77;4725677;59;1141744;-75
2023/10/21 09:56:17;;;;;;;21.55;13.80;;;;;;;9.42;100.00;99066.04;4840207;58;1141016;-76
2023/10/21 10:01:26;;;;;;;23.27;12.63;;;;;;;9.47;100.00;99071.20;4944539;57;1140825;-78
2023/10/21 10:06:33;;;;;;;18.07;13.17;;;;;;;9.53;100.00;99056.59;4921529;57;1140918;-73
2023/10/21 10:11:40;;;;;;;16.10;11.05;;;;;;;9.56;100.00;99064.70;4787169;59;1140818;-77
2023/10/21 10:16:45;;;;;;;29.10;19.17;;;;;;;9.60;100.00;99081.92;4725946;59;1140967;-78
2023/10/21 10:21:52;;;;;;;30.27;17.97;;;;;;;9.63;100.00;99082.43;4901686;58;1140902;-75
2023/10/21 10:27:02;;;;;;;33.20;22.17;;;;;;;9.67;100.00;99077.20;4692066;59;1141193;-74
2023/10/21 10:32:15;;;;;;;53.40;30.40;;;;;;;9.71;100.00;99080.38;4771002;59;1141685;-76
2023/10/21 10:37:34;;;;;;;51.77;29.42;;;;;;;9.73;100.00;99088.50;4811099;60;1140836;-68
2023/10/21 10:42:40;;;;;;;70.17;36.77;;;;;;;9.80;100.00;99104.08;4715174;60;1140774;-72
2023/10/21 10:47:46;;;;;;;95.63;44.47;;;;;;;9.87;100.00;99101.69;4896869;57;1140829;-74
2023/10/21 10:52:53;;;;;;;44.08;22.48;;;;;;;9.93;100.00;99128.00;4726337;59;1141020;-72
2023/10/21 10:58:00;;;;;;;30.27;18.43;;;;;;;9.98;100.00;99112.52;4746393;59;1140922;-70
2023/10/21 11:03:06;;;;;;;34.63;20.97;;;;;;;10.03;100.00;99116.37;4791358;59;1140980;-77
2023/10/21 11:08:12;;;;;;;37.33;20.10;;;;;;;10.08;100.00;99118.58;4789986;59;1143054;-78
2023/10/21 11:13:18;;;;;;;48.35;25.32;;;;;;;10.17;100.00;99125.11;4930795;58;1143413;-79
2023/10/21 11:18:25;;;;;;;27.63;18.57;;;;;;;10.23;100.00;99125.84;4766830;60;1143167;-79
2023/10/21 11:23:31;;;;;;;55.70;28.67;;;;;;;10.33;100.00;99120.98;4786318;59;1143274;-82
2023/10/21 11:28:40;;;;;;;58.60;30.80;;;;;;;10.43;100.00;99127.84;4968847;57;1143099;-81
2023/10/21 11:33:45;;;;;;;44.20;26.10;;;;;;;10.54;100.00;99143.98;4790459;60;1143317;-77
2023/10/21 11:38:51;;;;;;;40.97;23.07;;;;;;;10.65;100.00;99163.56;4912991;57;1143175;-67
2023/10/21 11:43:57;;;;;;;54.67;36.00;;;;;;;10.75;100.00;99154.21;4809650;60;1221079;-72
2023/10/21 11:49:04;;;;;;;40.88;25.57;;;;;;;10.85;100.00;99171.64;4788629;60;1143463;-70
2023/10/21 11:54:23;;;;;;;52.03;30.87;;;;;;;10.91;100.00;99177.66;4925746;57;1143544;-77
2023/10/21 12:26:20;;;;;;;40.33;25.90;;;;;;;11.61;100.00;99204.89;4988877;56;1142906;-76
2023/10/21 12:42:12;;;;;;;85.73;48.40;;;;;;;12.33;100.00;99227.91;4891885;56;976117;-71
2023/10/21 12:47:09;;;;;;;62.13;38.50;;;;;;;12.51;100.00;99233.93;4875187;57;1141277;-70
2023/10/21 12:52:16;;;;;;;42.90;28.02;;;;;;;12.85;100.00;99203.77;4944267;55;1143391;-69
2023/10/21 12:57:23;;;;;;;31.17;22.00;;;;;;;13.09;100.00;99243.60;4945303;56;1142733;-71
2023/10/21 13:02:28;;;;;;;40.13;25.37;;;;;;;13.40;100.00;99256.22;5001192;57;1142996;-68
2023/10/21 13:07:34;;;;;;;38.57;23.07;;;;;;;13.70;100.00;99268.80;4936083;56;1142911;-76
2023/10/21 13:12:41;;;;;;;30.90;21.87;;;;;;;13.87;100.00;99274.41;4911634;57;1143498;-77
2023/10/21 13:17:48;;;;;;;44.50;28.80;;;;;;;14.01;100.00;99276.35;4913483;57;1143354;-76
2023/10/21 13:22:54;;;;;;;34.83;24.17;;;;;;;14.15;100.00;99280.12;4955988;57;1143581;-79
2023/10/21 13:28:00;;;;;;;28.73;20.45;;;;;;;14.24;100.00;99289.72;4793792;59;1144359;-72
2023/10/21 13:33:07;;;;;;;26.12;17.05;;;;;;;14.39;100.00;99294.64;4898680;57;1142922;-80
2023/10/21 13:38:15;;;;;;;30.88;23.77;;;;;;;14.57;100.00;99304.23;4809484;59;1143016;-73
2023/10/21 13:43:20;;;;;;;34.70;24.10;;;;;;;14.73;100.00;99306.81;4913410;57;1143237;-73
2023/10/21 13:48:26;;;;;;;35.00;22.70;;;;;;;14.87;100.00;99307.39;4907196;57;1143200;-71
2023/10/21 13:53:31;;;;;;;32.73;21.70;;;;;;;15.05;100.00;99303.11;4876741;58;1143464;-75
2023/10/21 13:58:37;;;;;;;34.13;23.77;;;;;;;15.12;100.00;99320.05;4861919;59;1143330;-75
2023/10/21 14:03:42;;;;;;;46.13;30.13;;;;;;;14.99;100.00;99329.11;4867015;59;1143253;-75
2023/10/21 14:08:48;;;;;;;36.10;22.65;;;;;;;15.05;100.00;99337.23;4867265;58;1143267;-74
2023/10/21 14:13:54;;;;;;;31.70;20.90;;;;;;;15.06;100.00;99340.22;4940151;57;1142808;-77
2023/10/21 14:19:00;;;;;;;41.47;26.40;;;;;;;15.03;100.00;99325.92;4971093;56;1142907;-71
2023/10/21 14:24:06;;;;;;;57.17;38.43;;;;;;;14.97;100.00;99325.81;4910949;57;1142891;-70
2023/10/21 14:29:12;;;;;;;49.18;30.85;;;;;;;15.19;100.00;99320.16;4913088;57;1143389;-76
2023/10/21 14:34:17;;;;;;;54.33;34.83;;;;;;;16.60;100.00;99322.43;4866019;58;1143266;-73
2023/10/21 14:39:23;;;;;;;32.73;24.20;;;;;;;16.63;100.00;99332.77;4868179;56;1143264;-83
2023/10/21 14:44:29;;;;;;;36.10;22.30;;;;;;;15.88;100.00;99348.94;4861285;58;1143087;-73
2023/10/21 14:49:34;;;;;;;44.75;24.27;;;;;;;15.26;100.00;99350.42;4814377;58;1143801;-75
2023/10/21 14:54:41;;;;;;;45.73;27.53;;;;;;;15.00;100.00;99354.23;4820119;58;1142988;-75
2023/10/21 14:59:47;;;;;;;47.40;31.53;;;;;;;15.83;100.00;99364.97;4820607;57;1143343;-75
2023/10/21 15:04:53;;;;;;;36.37;25.87;;;;;;;16.74;100.00;99361.15;4838193;58;1142893;-70
2023/10/21 15:09:59;;;;;;;38.63;24.97;;;;;;;16.71;100.00;99367.36;4849640;57;1142884;-74
2023/10/21 15:15:08;;;;;;;38.57;25.37;;;;;;;16.13;100.00;99395.68;4789852;60;1143178;-74
2023/10/21 15:20:17;;;;;;;50.33;29.30;;;;;;;15.57;100.00;99409.84;4808396;58;1143025;-78
2023/10/21 15:25:24;;;;;;;45.77;29.67;;;;;;;15.02;100.00;99416.13;4766190;59;1143141;-75
2023/10/21 15:30:29;;;;;;;45.90;30.07;;;;;;;14.57;100.00;99412.83;4883895;57;1143079;-76
2023/10/21 15:35:41;;;;;;;44.80;30.63;;;;;;;14.23;100.00;99432.99;4915734;57;1142885;-75
2023/10/21 15:40:47;;;;;;;48.50;29.70;;;;;;;13.99;100.00;99425.06;4947091;56;1143021;-73
2023/10/21 15:46:00;;;;;;;115.47;62.37;;;;;;;13.79;100.00;99427.71;4765099;59;1143096;-75
2023/10/21 15:51:12;;;;;;;150.37;96.13;;;;;;;13.59;100.00;99434.70;4765970;59;1145207;-76
2023/10/21 15:56:18;;;;;;;73.70;47.88;;;;;;;13.43;100.00;99450.61;4752538;59;1145182;-73
2023/10/21 16:01:26;;;;;;;84.85;50.65;;;;;;;13.41;100.00;99453.09;4849726;58;1143250;-79
2023/10/21 16:06:31;;;;;;;142.23;68.87;;;;;;;13.39;100.00;99461.22;4905331;57;1143214;-73
2023/10/21 16:11:38;;;;;;;183.97;87.15;;;;;;;13.31;100.00;99458.53;4892724;58;1145188;-70
2023/10/21 16:16:44;;;;;;;156.37;75.03;;;;;;;13.27;100.00;99471.82;4905189;57;1145309;-80
2023/10/21 16:21:54;;;;;;;102.82;69.62;;;;;;;13.20;100.00;99478.26;4780962;59;1145352;-82
2023/10/21 16:26:57;;;;;;;81.07;49.77;;;;;;;13.10;100.00;99475.37;4925604;57;1145039;-72
2023/10/21 16:32:04;;;;;;;72.53;43.98;;;;;;;12.97;100.00;99470.03;4779046;59;1149634;-73
2023/10/21 16:37:09;;;;;;;87.90;50.25;;;;;;;12.86;100.00;99472.94;4750448;59;1143075;-77
2023/10/21 16:42:15;;;;;;;89.97;49.75;;;;;;;12.81;100.00;99468.63;4802188;59;1143493;-78
2023/10/21 16:47:21;;;;;;;110.75;70.12;;;;;;;12.80;100.00;99473.59;4771945;59;1143868;-79
2023/10/21 16:52:26;;;;;;;136.83;70.30;;;;;;;12.78;100.00;99478.72;4781703;59;1144909;-76
2023/10/21 16:57:32;;;;;;;92.93;55.77;;;;;;;12.74;100.00;99484.00;4827300;59;1145166;-77
2023/10/21 17:02:38;;;;;;;89.60;54.03;;;;;;;12.61;100.00;99496.37;4790817;59;1142910;-72
2023/10/21 17:07:46;;;;;;;82.83;48.47;;;;;;;12.50;100.00;99503.27;4986614;56;1143093;-78
2023/10/21 17:12:51;;;;;;;83.15;48.33;;;;;;;12.47;100.00;99519.48;4972835;57;1142667;-75
2023/10/21 17:17:58;;;;;;;99.73;57.33;;;;;;;12.44;100.00;99531.73;4931312;57;1142882;-77
2023/10/21 17:23:05;;;;;;;76.15;44.65;;;;;;;12.34;100.00;99545.09;4899373;56;1144954;-75
2023/10/21 17:28:11;;;;;;;85.63;50.70;;;;;;;12.27;100.00;99553.30;4883968;56;1143200;-73
2023/10/21 17:33:16;;;;;;;85.72;52.30;;;;;;;12.28;100.00;99565.08;4775389;59;1142942;-72
2023/10/21 17:38:22;;;;;;;115.30;67.60;;;;;;;12.16;100.00;99573.43;4733863;58;1143007;-77
2023/10/21 17:43:28;;;;;;;98.43;56.60;;;;;;;12.05;100.00;99585.59;4735164;58;1144924;-71
2023/10/21 17:48:34;;;;;;;74.13;44.43;;;;;;;11.95;100.00;99587.80;4841392;58;1143171;-76
2023/10/21 17:53:39;;;;;;;66.87;41.03;;;;;;;11.85;100.00;99583.56;4828498;57;1143070;-75
2023/10/21 17:58:45;;;;;;;80.77;49.17;;;;;;;11.73;100.00;99586.06;4794276;58;1143264;-74
2023/10/21 18:03:51;;;;;;;149.00;92.20;;;;;;;11.66;100.00;99595.56;4819266;59;1142806;-73
2023/10/21 18:08:57;;;;;;;77.13;50.07;;;;;;;11.65;100.00;99610.63;4885425;57;1145185;-76
2023/10/21 18:14:04;;;;;;;80.10;50.67;;;;;;;11.66;100.00;99617.59;4939369;57;1143071;-72
2023/10/21 18:19:09;;;;;;;76.57;47.83;;;;;;;11.71;100.00;99619.31;4792373;60;1143162;-78
2023/10/21 18:24:15;;;;;;;90.15;51.77;;;;;;;11.77;100.00;99628.50;4904025;57;1143188;-71
2023/10/21 18:29:21;;;;;;;94.97;60.05;;;;;;;11.85;100.00;99626.79;4843238;57;1143124;-77
2023/10/21 18:34:27;;;;;;;81.07;51.17;;;;;;;11.87;100.00;99614.72;4865519;58;1143110;-74
2023/10/21 18:39:32;;;;;;;74.30;47.73;;;;;;;11.83;100.00;99624.77;4919139;57;1143165;-72
2023/10/21 18:44:38;;;;;;;69.93;42.67;;;;;;;11.70;100.00;99629.56;4791075;60;1142954;-71
2023/10/21 18:49:44;;;;;;;66.90;39.83;;;;;;;11.54;100.00;99632.02;4797799;59;1142933;-72
2023/10/21 18:54:50;;;;;;;66.00;40.73;;;;;;;11.44;100.00;99655.91;4849863;58;1143028;-72
2023/10/21 18:59:56;;;;;;;71.07;41.33;;;;;;;11.39;100.00;99668.73;4998157;57;1143150;-75
2023/10/21 19:05:03;;;;;;;58.97;35.97;;;;;;;11.19;100.00;99671.08;4930693;57;1143064;-75
2023/10/21 19:10:10;;;;;;;83.73;46.40;;;;;;;11.14;100.00;99685.25;4903615;57;1143056;-73
2023/10/21 19:15:16;;;;;;;64.22;40.03;;;;;;;11.12;100.00;99683.23;4805597;59;1143253;-69
2023/10/21 19:20:21;;;;;;;76.35;44.90;;;;;;;11.11;100.00;99678.92;4908202;56;1143065;-70
2023/10/21 19:25:27;;;;;;;98.43;51.87;;;;;;;11.06;100.00;99689.09;4758090;59;1142900;-68
2023/10/21 19:30:33;;;;;;;90.13;44.07;;;;;;;11.05;100.00;99692.70;4871298;58;1142892;-67
2023/10/21 19:35:38;;;;;;;194.27;53.30;;;;;;;11.03;100.00;99694.16;4882359;58;1143097;-66
2023/10/21 19:40:44;;;;;;;124.03;47.60;;;;;;;11.06;100.00;99700.50;4797707;58;1145091;-69
2023/10/21 19:45:49;;;;;;;64.73;36.80;;;;;;;11.06;100.00;99693.05;4814820;58;1145193;-69
2023/10/21 19:50:55;;;;;;;45.67;29.90;;;;;;;11.01;100.00;99711.16;4689275;60;1143311;-68
2023/10/21 19:56:05;;;;;;;48.13;31.57;;;;;;;10.84;100.00;99712.73;4716115;60;1143020;-69
2023/10/21 20:01:11;;;;;;;142.47;39.73;;;;;;;10.75;100.00;99705.62;4738194;59;1143013;-67
2023/10/21 20:06:16;;;;;;;65.72;34.80;;;;;;;10.61;100.00;99712.16;4729469;60;1145115;-67
2023/10/21 20:11:22;;;;;;;63.23;37.15;;;;;;;10.52;100.00;99710.36;4723668;60;1143147;-67
2023/10/21 20:16:28;;;;;;;78.13;41.23;;;;;;;10.50;100.00;99711.82;4811589;58;1143187;-70
2023/10/21 20:21:35;;;;;;;65.30;35.50;;;;;;;10.40;100.00;99712.77;4909865;57;1143066;-68
2023/10/21 20:26:41;;;;;;;43.43;25.00;;;;;;;10.32;100.00;99719.23;4961103;56;1143066;-69
2023/10/21 20:31:46;;;;;;;42.33;25.50;;;;;;;10.28;100.00;99718.66;4782424;58;1142943;-70
2023/10/21 20:36:52;;;;;;;35.57;23.80;;;;;;;10.26;100.00;99725.05;4790242;59;1143123;-70
2023/10/21 20:41:57;;;;;;;29.60;20.60;;;;;;;10.26;100.00;99721.92;4808792;58;1143094;-67
2023/10/21 20:47:04;;;;;;;37.77;23.30;;;;;;;10.31;100.00;99726.81;4793777;60;1142804;-67
2023/10/21 20:52:13;;;;;;;36.13;24.07;;;;;;;10.28;100.00;99726.59;4773109;58;1142870;-68
2023/10/21 20:57:17;;;;;;;31.75;21.52;;;;;;;10.23;100.00;99720.06;4821178;60;1143151;-69
2023/10/21 21:02:22;;;;;;;28.50;19.45;;;;;;;10.19;100.00;99715.53;4799008;58;1143271;-68
2023/10/21 21:07:28;;;;;;;34.10;22.00;;;;;;;10.13;100.00;99723.47;4790371;60;1142980;-69
2023/10/21 21:12:34;;;;;;;34.27;21.67;;;;;;;9.96;100.00;99722.80;4809950;60;1142707;-69
2023/10/21 21:17:39;;;;;;;42.37;25.40;;;;;;;9.87;100.00;99715.20;4764577;59;1141626;-68
2023/10/21 21:22:46;;;;;;;48.37;29.97;;;;;;;9.75;100.00;99718.09;4837919;57;1141329;-69
2023/10/21 21:27:52;;;;;;;58.92;36.53;;;;;;;9.61;100.00;99714.48;4791499;60;1141079;-67
2023/10/21 21:32:57;;;;;;;78.77;39.97;;;;;;;9.56;100.00;99714.03;4923240;58;1140827;-70
2023/10/21 21:38:04;;;;;;;78.60;43.33;;;;;;;9.59;100.00;99725.17;4792523;60;1140945;-70
2023/10/21 21:43:10;;;;;;;73.03;38.57;;;;;;;9.56;100.00;99713.55;4796477;59;1141096;-66
2023/10/21 21:48:15;;;;;;;90.53;46.05;;;;;;;9.61;100.00;99714.48;4998252;57;1140998;-69
2023/10/21 21:53:21;;;;;;;228.83;82.62;;;;;;;9.64;100.00;99714.20;4979946;57;1140780;-68
2023/10/21 21:58:26;;;;;;;133.90;60.30;;;;;;;9.64;100.00;99724.76;4950294;57;1142800;-68
2023/10/21 22:03:39;;;;;;;70.97;36.27;;;;;;;9.66;100.00;99727.63;4814823;60;1143861;-69
2023/10/21 22:08:41;;;;;;;43.50;24.77;;;;;;;9.68;100.00;99725.69;4809024;58;1140863;-68
2023/10/21 22:13:47;;;;;;;39.97;23.90;;;;;;;9.69;100.00;99731.81;4731809;60;1140999;-68
2023/10/21 22:18:53;;;;;;;41.03;27.00;;;;;;;9.66;100.00;99735.55;4733108;60;1141726;-68
2023/10/21 22:23:59;;;;;;;36.03;24.53;;;;;;;9.60;100.00;99733.94;4752563;60;1140835;-66
2023/10/21 22:29:06;;;;;;;42.80;25.07;;;;;;;9.56;100.00;99734.67;4754766;59;1140837;-68
2023/10/21 22:34:12;;;;;;;42.03;24.63;;;;;;;9.49;100.00;99739.63;4904615;58;1140886;-69
2023/10/21 22:39:17;;;;;;;36.83;23.70;;;;;;;9.47;100.00;99741.55;4825895;59;1141157;-69
2023/10/21 22:44:23;;;;;;;44.57;27.00;;;;;;;9.56;100.00;99736.48;4867638;59;1140936;-70
2023/10/21 22:49:29;;;;;;;48.70;26.67;;;;;;;9.63;100.00;99731.84;4985113;56;1141004;-70
2023/10/21 22:54:34;;;;;;;53.63;32.00;;;;;;;9.45;100.00;99731.64;4859321;59;1141158;-70
2023/10/21 22:59:40;;;;;;;57.03;30.93;;;;;;;9.30;100.00;99723.71;4790334;59;1141064;-67
2023/10/21 23:04:45;;;;;;;48.90;28.33;;;;;;;9.17;100.00;99731.80;4771768;60;1140845;-68
2023/10/21 23:09:51;;;;;;;44.83;27.03;;;;;;;9.14;100.00;99741.31;4940502;57;1140885;-70
2023/10/21 23:14:57;;;;;;;49.03;30.03;;;;;;;9.25;100.00;99750.95;4950626;57;1140917;-70
2023/10/21 23:20:02;;;;;;;54.47;31.23;;;;;;;9.34;100.00;99755.45;4792340;59;1141031;-69
2023/10/21 23:25:11;;;;;;;47.47;30.63;;;;;;;9.28;100.00;99746.75;4781543;58;1141243;-67
2023/10/21 23:30:17;;;;;;;46.15;27.65;;;;;;;9.22;100.00;99755.17;4812502;59;1141075;-70
2023/10/21 23:35:23;;;;;;;45.65;26.82;;;;;;;9.19;100.00;99762.02;4745782;59;1140893;-70